Bao An Cheng 69 — BVBD5 — position and weather

sailwx.info

Track history (hours):
 
Tides and Currents Weather Stations Pressure Air Temp Water Temp Dewpoint Dewpoint Depression Visibility Wind Speed Wind Dir Waves Ship Positions

Bao An Cheng 69

Last reported at 2015-Aug-30 15:33 UTC. Time now 2015-Aug-30 16:03 UTC.
Position N 24°49' E 118°43'.

Length 121 m; draft 6.5 m.

Type: Cargo ship. MMSI: 412703090.

Date/timePositionNaut miles runAvg speedWind from/ knotsBaromVisibWave heightAir tempDewpointWater temp
2015-Aug-30 15:33N 24°49' E 118°43'0 0.0
2015-Aug-30 14:32N 24°49' E 118°43'0 0.0
2015-Aug-30 13:14N 24°49' E 118°43'0 0.1
2015-Aug-30 12:32N 24°49' E 118°43'0 0.1
2015-Aug-30 11:32N 24°49' E 118°43'0 0.0
2015-Aug-30 10:20N 24°49' E 118°43'0 0.1
2015-Aug-30 09:32N 24°49' E 118°43'0 0.0
2015-Aug-30 08:26N 24°49' E 118°43'0 0.0
2015-Aug-30 07:32N 24°49' E 118°43'0 0.0
2015-Aug-30 06:17N 24°49' E 118°43'0 0.0
2015-Aug-30 05:32N 24°49' E 118°43'0 0.0
2015-Aug-30 04:26N 24°49' E 118°43'0 0.0
2015-Aug-30 03:08N 24°49' E 118°43'0 0.1
2015-Aug-30 02:32N 24°49' E 118°43'0 0.0
2015-Aug-30 01:20N 24°49' E 118°43'0 0.1
2015-Aug-30 00:32N 24°49' E 118°43'0 0.1
2015-Aug-29 23:32N 24°49' E 118°43'0 0.0
2015-Aug-29 22:32N 24°49' E 118°43'1 1.1
2015-Aug-29 21:33N 24°49' E 118°44'4 3.7
2015-Aug-29 20:33N 24°48' E 118°48'0 0.1
2015-Aug-29 19:33N 24°48' E 118°48'0 0.1
2015-Aug-29 18:33N 24°48' E 118°48'0 0.1
2015-Aug-29 17:33N 24°48' E 118°48'0 0.1
2015-Aug-29 16:33N 24°48' E 118°48'0 0.1
2015-Aug-29 15:33N 24°48' E 118°48'0 0.0
2015-Aug-29 14:33N 24°48' E 118°48'0 0.1
2015-Aug-29 13:17N 24°48' E 118°48'0 0.0
2015-Aug-29 11:30N 24°48' E 118°48'0 0.0
2015-Aug-29 10:33N 24°48' E 118°48'7 6.5
2015-Aug-29 09:33N 24°49' E 118°55'9 9.0
2015-Aug-29 08:33N 24°53' E 119°04'181 9.5
2015-Aug-28 13:30N 27°25' E 120°53'152 9.4
2015-Aug-27 21:13N 29°34' E 122°26'86 8.6
2015-Aug-27 11:12N 30°59' E 122°13'4 6.9
2015-Aug-27 10:33N 31°02' E 122°09'7 6.9
2015-Aug-27 09:34N 31°05' E 122°02'8 7.8
2015-Aug-27 08:34N 31°08' E 121°54'1010.1
2015-Aug-27 07:34N 31°16' E 121°46'10 9.7
2015-Aug-27 06:33N 31°22' E 121°37'6 5.9
2015-Aug-27 05:33N 31°22' E 121°30'1 0.5
2015-Aug-27 04:33N 31°21' E 121°30'0 0.0
2015-Aug-27 03:28N 31°21' E 121°30'0 0.0
2015-Aug-27 02:28N 31°21' E 121°30'0 0.0
2015-Aug-27 00:31N 31°21' E 121°30'0 0.0
2015-Aug-26 23:28N 31°21' E 121°30'0 0.0
2015-Aug-26 22:19N 31°21' E 121°30'0 0.0
2015-Aug-26 21:28N 31°21' E 121°30'0 0.0
2015-Aug-26 20:28N 31°21' E 121°30'0 0.0
2015-Aug-26 19:28N 31°21' E 121°30'0 0.1
2015-Aug-26 18:33N 31°21' E 121°30'4 3.8
2015-Aug-26 17:33N 31°24' E 121°33'4 4.0
2015-Aug-26 16:33N 31°23' E 121°38'0 0.1
2015-Aug-26 15:32N 31°23' E 121°38'0 0.1
2015-Aug-26 14:33N 31°23' E 121°37'9 8.6
2015-Aug-26 13:33N 31°17' E 121°45'1211.8
2015-Aug-26 12:33N 31°08' E 121°55'1211.6
2015-Aug-26 11:33N 31°04' E 122°07'15 9.8
2015-Aug-26 10:04N 30°52' E 122°17'56 2.3
2015-Aug-25 09:24N 29°58' E 121°59'11 9.4
2015-Aug-25 08:15N 29°55' E 122°10'307 7.9
2015-Aug-23 17:27N 25°15' E 119°47'10 8.4
2015-Aug-23 16:16N 25°09' E 119°38'25 9.0
2015-Aug-23 13:32N 24°54' E 119°16'9 8.7
2015-Aug-23 12:31N 24°48' E 119°09'8 8.3
2015-Aug-23 11:31N 24°43' E 119°02'8 8.1
2015-Aug-23 10:33N 24°38' E 118°56'16 8.0
2015-Aug-23 08:33N 24°28' E 118°42'10 8.8
2015-Aug-23 07:25N 24°21' E 118°34'8 9.2
2015-Aug-23 06:31N 24°15' E 118°27'9 9.3
2015-Aug-23 05:33N 24°09' E 118°20'22 9.4
2015-Aug-23 03:12N 23°56' E 118°01'68 8.7
2015-Aug-22 19:22N 23°18' E 116°59'910.5
2015-Aug-22 18:33N 23°12' E 116°52'1010.0
2015-Aug-22 17:33N 23°04' E 116°45'9 9.3
2015-Aug-22 16:33N 22°58' E 116°38'135 8.8
2015-Aug-22 01:17N 22°07' E 114°22'7 9.1
2015-Aug-22 00:33N 22°04' E 114°16'78 9.5
2015-Aug-21 16:20N 21°30' E 113°00'8 9.9
2015-Aug-21 15:29N 21°26' E 112°53'  
Track history (hours):
 
Tides and Currents Weather Stations Pressure Air Temp Water Temp Dewpoint Dewpoint Depression Visibility Wind Speed Wind Dir Waves Ship Positions

Bao An Cheng 69

Last reported at 2015-Aug-30 15:33 UTC. Time now 2015-Aug-30 16:03 UTC.
Position N 24°49' E 118°43'.

Length 121 m; draft 6.5 m.

Type: Cargo ship. MMSI: 412703090.

Date/timePositionNaut miles runAvg speedWind from/ knotsBaromVisibWave heightAir tempDewpointWater temp
2015-Aug-30 15:33N 24°49' E 118°43'0 0.0
2015-Aug-30 14:32N 24°49' E 118°43'0 0.0
2015-Aug-30 13:14N 24°49' E 118°43'0 0.1
2015-Aug-30 12:32N 24°49' E 118°43'0 0.1
2015-Aug-30 11:32N 24°49' E 118°43'0 0.0
2015-Aug-30 10:20N 24°49' E 118°43'0 0.1
2015-Aug-30 09:32N 24°49' E 118°43'0 0.0
2015-Aug-30 08:26N 24°49' E 118°43'0 0.0
2015-Aug-30 07:32N 24°49' E 118°43'0 0.0
2015-Aug-30 06:17N 24°49' E 118°43'0 0.0
2015-Aug-30 05:32N 24°49' E 118°43'0 0.0
2015-Aug-30 04:26N 24°49' E 118°43'0 0.0
2015-Aug-30 03:08N 24°49' E 118°43'0 0.1
2015-Aug-30 02:32N 24°49' E 118°43'0 0.0
2015-Aug-30 01:20N 24°49' E 118°43'0 0.1
2015-Aug-30 00:32N 24°49' E 118°43'0 0.1
2015-Aug-29 23:32N 24°49' E 118°43'0 0.0
2015-Aug-29 22:32N 24°49' E 118°43'1 1.1
2015-Aug-29 21:33N 24°49' E 118°44'4 3.7
2015-Aug-29 20:33N 24°48' E 118°48'0 0.1
2015-Aug-29 19:33N 24°48' E 118°48'0 0.1
2015-Aug-29 18:33N 24°48' E 118°48'0 0.1
2015-Aug-29 17:33N 24°48' E 118°48'0 0.1
2015-Aug-29 16:33N 24°48' E 118°48'0 0.1
2015-Aug-29 15:33N 24°48' E 118°48'0 0.0
2015-Aug-29 14:33N 24°48' E 118°48'0 0.1
2015-Aug-29 13:17N 24°48' E 118°48'0 0.0
2015-Aug-29 11:30N 24°48' E 118°48'0 0.0
2015-Aug-29 10:33N 24°48' E 118°48'7 6.5
2015-Aug-29 09:33N 24°49' E 118°55'9 9.0
2015-Aug-29 08:33N 24°53' E 119°04'181 9.5
2015-Aug-28 13:30N 27°25' E 120°53'152 9.4
2015-Aug-27 21:13N 29°34' E 122°26'86 8.6
2015-Aug-27 11:12N 30°59' E 122°13'4 6.9
2015-Aug-27 10:33N 31°02' E 122°09'7 6.9
2015-Aug-27 09:34N 31°05' E 122°02'8 7.8
2015-Aug-27 08:34N 31°08' E 121°54'1010.1
2015-Aug-27 07:34N 31°16' E 121°46'10 9.7
2015-Aug-27 06:33N 31°22' E 121°37'6 5.9
2015-Aug-27 05:33N 31°22' E 121°30'1 0.5
2015-Aug-27 04:33N 31°21' E 121°30'0 0.0
2015-Aug-27 03:28N 31°21' E 121°30'0 0.0
2015-Aug-27 02:28N 31°21' E 121°30'0 0.0
2015-Aug-27 00:31N 31°21' E 121°30'0 0.0
2015-Aug-26 23:28N 31°21' E 121°30'0 0.0
2015-Aug-26 22:19N 31°21' E 121°30'0 0.0
2015-Aug-26 21:28N 31°21' E 121°30'0 0.0
2015-Aug-26 20:28N 31°21' E 121°30'0 0.0
2015-Aug-26 19:28N 31°21' E 121°30'0 0.1
2015-Aug-26 18:33N 31°21' E 121°30'4 3.8
2015-Aug-26 17:33N 31°24' E 121°33'4 4.0
2015-Aug-26 16:33N 31°23' E 121°38'0 0.1
2015-Aug-26 15:32N 31°23' E 121°38'0 0.1
2015-Aug-26 14:33N 31°23' E 121°37'9 8.6
2015-Aug-26 13:33N 31°17' E 121°45'1211.8
2015-Aug-26 12:33N 31°08' E 121°55'1211.6
2015-Aug-26 11:33N 31°04' E 122°07'15 9.8
2015-Aug-26 10:04N 30°52' E 122°17'56 2.3
2015-Aug-25 09:24N 29°58' E 121°59'11 9.4
2015-Aug-25 08:15N 29°55' E 122°10'307 7.9
2015-Aug-23 17:27N 25°15' E 119°47'10 8.4
2015-Aug-23 16:16N 25°09' E 119°38'25 9.0
2015-Aug-23 13:32N 24°54' E 119°16'9 8.7
2015-Aug-23 12:31N 24°48' E 119°09'8 8.3
2015-Aug-23 11:31N 24°43' E 119°02'8 8.1
2015-Aug-23 10:33N 24°38' E 118°56'16 8.0
2015-Aug-23 08:33N 24°28' E 118°42'10 8.8
2015-Aug-23 07:25N 24°21' E 118°34'8 9.2
2015-Aug-23 06:31N 24°15' E 118°27'9 9.3
2015-Aug-23 05:33N 24°09' E 118°20'22 9.4
2015-Aug-23 03:12N 23°56' E 118°01'68 8.7
2015-Aug-22 19:22N 23°18' E 116°59'910.5
2015-Aug-22 18:33N 23°12' E 116°52'1010.0
2015-Aug-22 17:33N 23°04' E 116°45'9 9.3
2015-Aug-22 16:33N 22°58' E 116°38'135 8.8
2015-Aug-22 01:17N 22°07' E 114°22'7 9.1
2015-Aug-22 00:33N 22°04' E 114°16'78 9.5
2015-Aug-21 16:20N 21°30' E 113°00'8 9.9
2015-Aug-21 15:29N 21°26' E 112°53'  

Dump ship's entire track history